Time;durP1;ratioP1;P1;durP2;ratioP2;P2;SDS_P1;SDS_P2;PMS_P1;PMS_P2;Temp;Humidity;BMP_temperature;BMP_pressure;BME280_temperature;BME280_humidity;BME280_pressure;Samples;Min_cycle;Max_cycle;Signal;HPM_P1;HPM_P2
2023/02/08 06:54:33;;;;;;;9.55;6.75;;;;;;;;;;10549425;27;20481;-81
2023/02/08 06:59:34;;;;;;;8.95;6.82;;;;;;;;;;10537638;28;20107;-83
2023/02/08 07:04:35;;;;;;;10.85;6.80;;;;;;;;;;10553962;28;20016;-84
2023/02/08 07:09:55;;;;;;;13.82;9.88;;;;;;;;;;10555727;28;20025;-82
2023/02/08 07:15:22;;;;;;;12.05;9.10;;;;;;;;;;10540606;28;20390;-82
2023/02/08 07:20:30;;;;;;;11.55;9.15;;;;;;;;;;10539929;28;20040;-83
2023/02/08 07:25:31;;;;;;;10.82;7.88;;;;;;;;;;10521814;28;20573;-83
2023/02/08 07:30:32;;;;;;;9.35;7.65;;;;;;;;;;10521649;28;20111;-82
2023/02/08 07:35:33;;;;;;;11.68;8.82;;;;;;;;;;10524682;28;20111;-83
2023/02/08 07:40:34;;;;;;;11.93;9.93;;;;;;;;;;10523552;28;20119;-83
2023/02/08 07:45:39;;;;;;;10.98;8.73;;;;;;;;;;10522525;28;20021;-83
2023/02/08 07:50:40;;;;;;;11.65;8.32;;;;;;;;;;10542722;28;20405;-83
2023/02/08 07:55:41;;;;;;;12.40;9.32;;;;;;;;;;10525666;28;20072;-83
2023/02/08 08:00:42;;;;;;;12.18;10.20;;;;;;;;;;10530282;28;20398;-84
2023/02/08 08:05:43;;;;;;;12.18;9.35;;;;;;;;;;10502644;28;20031;-79
2023/02/08 08:10:45;;;;;;;13.90;11.23;;;;;;;;;;10524902;28;20025;-80
2023/02/08 08:15:46;;;;;;;14.18;9.82;;;;;;;;;;10504976;28;20058;-83
2023/02/08 08:20:47;;;;;;;12.85;11.02;;;;;;;;;;10501794;28;20092;-82
2023/02/08 08:25:49;;;;;;;14.32;10.52;;;;;;;;;;10504204;28;20021;-80
2023/02/08 08:30:50;;;;;;;13.02;9.70;;;;;;;;;;10506037;28;20091;-83
2023/02/08 08:35:51;;;;;;;;;;;;;;;;;;10526683;28;20032;-83
2023/02/08 08:40:52;;;;;;;12.07;8.98;;;;;;;;;;10520027;28;19934;-82
2023/02/08 08:45:53;;;;;;;15.13;11.88;;;;;;;;;;10518988;28;20032;-81
2023/02/08 08:50:54;;;;;;;18.70;13.27;;;;;;;;;;10517576;28;20130;-80
2023/02/08 08:55:55;;;;;;;15.50;11.77;;;;;;;;;;10507376;28;20077;-81
2023/02/08 09:00:57;;;;;;;14.55;11.40;;;;;;;;;;10515992;28;20058;-81
2023/02/08 09:05:58;;;;;;;13.70;10.73;;;;;;;;;;10498505;28;20032;-82
2023/02/08 09:11:10;;;;;;;13.68;10.40;;;;;;;;;;10496657;28;20029;-81
2023/02/08 09:16:16;;;;;;;14.73;11.05;;;;;;;;;;10495872;28;20058;-81
2023/02/08 09:21:20;;;;;;;21.75;16.48;;;;;;;;;;10496949;28;20035;-82
2023/02/08 09:26:21;;;;;;;11.77;10.02;;;;;;;;;;10495821;28;20020;-80
2023/02/08 09:31:30;;;;;;;12.25;8.75;;;;;;;;;;10496639;28;20024;-80
2023/02/08 09:36:35;;;;;;;12.60;10.02;;;;;;;;;;10497057;28;20134;-81
2023/02/08 09:41:48;;;;;;;12.75;9.68;;;;;;;;;;10512318;28;20106;-81
2023/02/08 09:47:08;;;;;;;14.48;11.13;;;;;;;;;;10496381;28;20032;-82
2023/02/08 09:52:20;;;;;;;12.48;9.02;;;;;;;;;;10495535;28;20036;-81
2023/02/08 09:57:24;;;;;;;12.35;9.30;;;;;;;;;;10495873;28;20119;-82
2023/02/08 10:02:29;;;;;;;10.05;8.10;;;;;;;;;;10496607;28;20052;-82
2023/02/08 10:07:31;;;;;;;11.98;7.55;;;;;;;;;;10516081;28;20075;-79
2023/02/08 10:12:51;;;;;;;11.57;8.30;;;;;;;;;;10512716;28;20040;-84
2023/02/08 10:17:52;;;;;;;11.57;8.40;;;;;;;;;;10497884;28;20028;-83
2023/02/08 10:22:53;;;;;;;;;;;;;;;;;;10497156;28;20059;-82
2023/02/08 10:27:55;;;;;;;9.70;6.93;;;;;;;;;;10513709;28;20393;-85
2023/02/08 10:33:06;;;;;;;10.40;7.20;;;;;;;;;;10515206;28;20040;-85
2023/02/08 10:38:19;;;;;;;8.60;7.00;;;;;;;;;;10495071;28;20021;-80
2023/02/08 10:43:37;;;;;;;10.82;6.80;;;;;;;;;;10492712;28;20050;-80
2023/02/08 10:48:53;;;;;;;9.45;6.25;;;;;;;;;;10512672;28;20032;-80
2023/02/08 10:53:54;;;;;;;9.15;6.35;;;;;;;;;;10493058;28;20037;-83
2023/02/08 10:58:56;;;;;;;14.45;11.52;;;;;;;;;;10493316;28;20107;-82
2023/02/08 11:04:02;;;;;;;9.13;5.50;;;;;;;;;;10493052;28;20032;-83
2023/02/08 11:09:04;;;;;;;9.75;6.43;;;;;;;;;;10510873;28;20039;-82
2023/02/08 11:14:07;;;;;;;7.30;5.63;;;;;;;;;;10493411;28;20066;-81
2023/02/08 11:19:18;;;;;;;7.70;5.80;;;;;;;;;;10492292;28;20047;-83
2023/02/08 11:24:26;;;;;;;8.07;5.70;;;;;;;;;;10491809;28;20395;-81
2023/02/08 11:29:29;;;;;;;6.32;5.03;;;;;;;;;;10499808;28;20055;-82
2023/02/08 11:34:31;;;;;;;8.80;4.97;;;;;;;;;;10513884;28;20048;-81
2023/02/08 11:39:53;;;;;;;11.38;5.40;;;;;;;;;;10501620;28;20084;-80
2023/02/08 11:44:55;;;;;;;6.38;4.43;;;;;;;;;;10523619;28;20044;-82
2023/02/08 11:49:57;;;;;;;6.60;4.82;;;;;;;;;;10501463;28;20075;-80
2023/02/08 11:55:33;;;;;;;7.13;4.60;;;;;;;;;;10506841;22;20064;-80
2023/02/08 12:00:36;;;;;;;7.00;4.97;;;;;;;;;;10387421;28;20096;-81
2023/02/08 12:05:37;;;;;;;5.05;4.07;;;;;;;;;;10483686;28;20029;-81
2023/02/08 12:10:38;;;;;;;5.82;4.43;;;;;;;;;;10524644;28;20072;-81
2023/02/08 12:15:39;;;;;;;;;;;;;;;;;;10506421;28;20028;-81
2023/02/08 12:20:47;;;;;;;5.93;4.38;;;;;;;;;;10499811;28;19904;-80
2023/02/08 12:25:55;;;;;;;5.53;3.50;;;;;;;;;;10506292;28;20056;-80
2023/02/08 12:31:06;;;;;;;6.03;4.18;;;;;;;;;;10519485;28;20462;-80
2023/02/08 12:36:42;;;;;;;5.72;3.60;;;;;;;;;;10494123;28;20036;-79
2023/02/08 12:42:05;;;;;;;6.20;4.60;;;;;;;;;;10403856;28;20028;-79
2023/02/08 12:47:22;;;;;;;5.93;3.90;;;;;;;;;;10495026;28;20077;-79
2023/02/08 12:52:31;;;;;;;7.25;4.70;;;;;;;;;;10495035;28;20029;-81
2023/02/08 12:57:32;;;;;;;4.88;3.65;;;;;;;;;;10509632;28;20081;-80
2023/02/08 13:02:44;;;;;;;5.53;3.95;;;;;;;;;;10491691;28;20035;-79
2023/02/08 13:07:49;;;;;;;7.63;3.72;;;;;;;;;;10493625;28;20069;-80
2023/02/08 13:12:52;;;;;;;4.72;3.40;;;;;;;;;;10510723;28;20052;-80
2023/02/08 13:17:54;;;;;;;5.65;4.13;;;;;;;;;;10510506;28;20029;-79
2023/02/08 13:22:58;;;;;;;5.55;3.78;;;;;;;;;;10498102;28;20064;-80
2023/02/08 13:28:01;;;;;;;7.60;4.35;;;;;;;;;;10493906;28;20067;-80
2023/02/08 13:33:16;;;;;;;5.50;3.67;;;;;;;;;;10509992;28;20032;-81
2023/02/08 13:38:29;;;;;;;5.53;3.95;;;;;;;;;;10509888;28;20024;-80
2023/02/08 13:43:35;;;;;;;6.78;3.90;;;;;;;;;;10510597;28;20083;-80
2023/02/08 13:48:43;;;;;;;6.18;4.07;;;;;;;;;;10494232;28;20036;-80
2023/02/08 13:53:47;;;;;;;5.57;4.00;;;;;;;;;;10497451;28;20066;-80
2023/02/08 13:58:48;;;;;;;5.93;3.92;;;;;;;;;;10514346;28;20105;-80
2023/02/08 14:03:49;;;;;;;;;;;;;;;;;;10496978;28;20043;-80
2023/02/08 14:09:10;;;;;;;4.85;3.53;;;;;;;;;;10504983;28;20483;-80
2023/02/08 14:14:17;;;;;;;6.35;3.80;;;;;;;;;;10456396;28;20045;-80
2023/02/08 14:19:18;;;;;;;9.20;5.25;;;;;;;;;;10495481;28;20033;-80
2023/02/08 14:24:19;;;;;;;;;;;;;;;;;;10498916;28;20092;-80
2023/02/08 14:29:29;;;;;;;6.22;3.60;;;;;;;;;;10513413;28;19904;-80
2023/02/08 14:34:38;;;;;;;5.73;3.33;;;;;;;;;;10516624;28;20044;-79
2023/02/08 14:39:39;;;;;;;4.85;3.75;;;;;;;;;;10498637;28;20474;-79
2023/02/08 14:44:41;;;;;;;;;;;;;;;;;;10513883;28;20056;-79
2023/02/08 14:49:44;;;;;;;6.68;3.40;;;;;;;;;;10494689;28;19909;-79
2023/02/08 14:54:52;;;;;;;7.35;4.07;;;;;;;;;;10496038;28;20036;-80
2023/02/08 14:59:54;;;;;;;6.00;3.58;;;;;;;;;;10494973;28;20612;-80
2023/02/08 15:04:56;;;;;;;7.38;4.38;;;;;;;;;;10494382;28;20119;-78
2023/02/08 15:09:57;;;;;;;4.75;3.40;;;;;;;;;;10495107;28;20550;-80
2023/02/08 15:14:59;;;;;;;8.23;3.90;;;;;;;;;;10498379;28;20063;-80
2023/02/08 15:20:02;;;;;;;7.90;4.40;;;;;;;;;;10520464;28;20107;-80
2023/02/08 15:25:13;;;;;;;8.55;4.55;;;;;;;;;;10525553;28;20048;-81
2023/02/08 15:30:41;;;;;;;6.00;3.08;;;;;;;;;;10502936;28;20123;-78
2023/02/08 15:35:42;;;;;;;5.90;3.28;;;;;;;;;;10503111;28;20040;-81
2023/02/08 15:40:58;;;;;;;5.38;3.47;;;;;;;;;;10507345;28;20028;-80
2023/02/08 15:46:02;;;;;;;4.50;3.05;;;;;;;;;;10502022;28;20116;-81
2023/02/08 15:51:06;;;;;;;6.82;3.17;;;;;;;;;;10526574;28;20040;-80
2023/02/08 15:56:08;;;;;;;6.40;3.58;;;;;;;;;;10522014;28;20262;-80
2023/02/08 16:01:16;;;;;;;6.07;3.85;;;;;;;;;;10502556;28;20123;-81
2023/02/08 16:06:25;;;;;;;4.38;3.15;;;;;;;;;;10498036;28;20032;-82
2023/02/08 16:11:27;;;;;;;6.35;3.55;;;;;;;;;;10514641;28;20394;-81
2023/02/08 16:16:28;;;;;;;4.57;3.50;;;;;;;;;;10512887;28;20025;-80
2023/02/08 16:21:29;;;;;;;;;;;;;;;;;;10494947;28;20067;-80
2023/02/08 16:26:35;;;;;;;12.80;7.90;;;;;;;;;;10511449;28;20225;-80
2023/02/08 16:31:36;;;;;;;5.13;3.85;;;;;;;;;;10512173;28;20099;-80
2023/02/08 16:36:43;;;;;;;6.13;3.83;;;;;;;;;;10512186;28;20066;-81
2023/02/08 16:41:54;;;;;;;7.35;4.15;;;;;;;;;;10513691;28;20107;-80
2023/02/08 16:46:55;;;;;;;6.87;4.57;;;;;;;;;;10497136;28;20033;-80
2023/02/08 16:51:56;;;;;;;;;;;;;;;;;;10494742;28;20130;-81
2023/02/08 16:56:59;;;;;;;5.47;4.45;;;;;;;;;;10512876;28;19912;-80
2023/02/08 17:02:00;;;;;;;6.22;4.18;;;;;;;;;;10511332;28;20105;-79
2023/02/08 17:07:01;;;;;;;6.25;3.85;;;;;;;;;;10511069;28;20028;-79
2023/02/08 17:12:02;;;;;;;9.65;6.18;;;;;;;;;;10495048;28;20017;-80
2023/02/08 17:17:03;;;;;;;6.13;3.38;;;;;;;;;;10493740;28;20115;-79
2023/02/08 17:22:04;;;;;;;;;;;;;;;;;;10490481;28;20172;-81
2023/02/08 17:27:06;;;;;;;13.45;8.55;;;;;;;;;;10495887;28;20358;-84
2023/02/08 17:32:10;;;;;;;8.45;6.35;;;;;;;;;;10484914;28;20067;-84
2023/02/08 17:48:13;;;;;;;7.95;6.38;;;;;;;;;;10515900;28;20028;-84
2023/02/08 17:53:27;;;;;;;10.05;6.88;;;;;;;;;;10504609;22;20012;-83
2023/02/08 17:58:34;;;;;;;11.30;8.98;;;;;;;;;;10425852;28;20064;-82
2023/02/08 18:03:35;;;;;;;8.68;6.20;;;;;;;;;;10426340;28;20076;-82
2023/02/08 18:08:37;;;;;;;9.52;7.43;;;;;;;;;;10445141;28;20109;-82
2023/02/08 18:13:38;;;;;;;9.00;6.72;;;;;;;;;;10426137;28;20502;-81
2023/02/08 18:18:40;;;;;;;10.18;6.93;;;;;;;;;;10426749;28;20048;-81
2023/02/08 18:23:41;;;;;;;11.50;6.57;;;;;;;;;;10427338;28;20128;-81
2023/02/08 18:28:43;;;;;;;9.85;7.40;;;;;;;;;;10427502;28;20037;-81
2023/02/08 18:33:44;;;;;;;9.85;6.80;;;;;;;;;;10426814;28;20029;-81
2023/02/08 18:38:45;;;;;;;;;;;;;;;;;;10426221;28;20025;-81
2023/02/08 18:43:47;;;;;;;9.25;6.90;;;;;;;;;;10425385;28;19908;-81
2023/02/08 18:48:48;;;;;;;10.10;7.20;;;;;;;;;;10425585;28;20062;-81
2023/02/08 18:53:50;;;;;;;10.55;7.13;;;;;;;;;;10433532;28;20029;-80
2023/02/08 18:58:52;;;;;;;8.45;6.40;;;;;;;;;;10438376;28;20067;-82
2023/02/08 19:03:53;;;;;;;10.43;6.90;;;;;;;;;;10425059;28;20030;-82
2023/02/08 19:08:54;;;;;;;;;;;;;;;;;;10426320;28;20040;-81
2023/02/08 19:13:56;;;;;;;11.43;7.88;;;;;;;;;;10424033;28;19909;-82
2023/02/08 19:18:59;;;;;;;9.50;7.30;;;;;;;;;;10422680;28;20120;-80
2023/02/08 19:24:00;;;;;;;8.73;6.90;;;;;;;;;;10428861;28;20059;-80
2023/02/08 19:29:05;;;;;;;8.13;6.40;;;;;;;;;;10433321;28;20017;-81
2023/02/08 19:34:06;;;;;;;10.15;6.68;;;;;;;;;;10421861;28;20026;-80
2023/02/08 19:39:07;;;;;;;;;;;;;;;;;;10422951;28;20025;-80
2023/02/08 19:44:10;;;;;;;7.88;5.95;;;;;;;;;;10421448;28;19908;-81
2023/02/08 19:49:12;;;;;;;8.18;6.10;;;;;;;;;;10421652;28;20034;-81
2023/02/08 19:54:15;;;;;;;8.75;6.15;;;;;;;;;;10420791;28;20064;-80
2023/02/08 19:59:21;;;;;;;6.53;5.55;;;;;;;;;;10433022;28;20072;-82
2023/02/08 20:04:22;;;;;;;9.55;6.18;;;;;;;;;;10433198;28;20075;-82
2023/02/08 20:09:23;;;;;;;8.68;6.18;;;;;;;;;;10431177;28;20108;-82
2023/02/08 20:14:24;;;;;;;;;;;;;;;;;;10428559;28;20057;-80
